Data for 12/15/2006

Time Sea-Level Adjusted Pressure Absolute Pressure Temperature Relative Humidity Dew Point   
(mb) (inHg) (mb) (inHg) (C) (F) (%) (C) (F)
00:05 1006 29.71 835 24.66 8.9 48 51 -0.8 30.6
00:10 1006 29.71 835 24.66 8.7 47.6 54 -0.2 31.7
00:15 1006 29.71 835 24.66 7.9 46.2 55 -0.5 31.1
00:20 1006 29.71 835 24.66 7.8 46.1 56 -0.3 31.4
00:25 1005 29.68 835 24.66 7.4 45.2 60 0.1 32.2
00:30 1005 29.68 835 24.66 5.8 42.5 65 -0.2 31.6
00:35 1005 29.68 834 24.63 6.2 43.1 61 -0.7 30.8
00:40 1005 29.68 834 24.63 6.9 44.3 57 -1.1 29.9
00:45 1005 29.68 834 24.63 7.4 45.3 55 -0.9 30.3
00:50 1005 29.68 834 24.63 7.7 45.9 54 -0.9 30.4
00:55 1005 29.68 834 24.63 7.7 45.9 54 -0.9 30.3
01:00 1005 29.68 834 24.63 7.7 45.8 53 -1.2 29.9
01:05 1005 29.68 834 24.63 7.6 45.8 55 -0.8 30.6
01:10 1004 29.65 834 24.63 7.3 45.1 56 -1 30.3
01:15 1004 29.65 834 24.63 7.2 45 56 -0.8 30.5
01:20 1004 29.65 833 24.6 7.2 45 53 -1.8 28.7
01:25 1004 29.65 833 24.6 8.5 47.3 48 -1.9 28.6
01:30 1004 29.65 833 24.6 9 48.1 47 -1.6 29.1
01:35 1004 29.65 833 24.6 9.6 49.4 43 -2.2 28.1
01:40 1004 29.65 833 24.6 10.2 50.3 43 -1.7 28.9
01:45 1004 29.65 833 24.6 10.6 51.1 44 -1.1 30
01:50 1004 29.65 833 24.6 10.4 50.8 43 -1.5 29.2
01:55 1004 29.65 833 24.6 10.6 51.1 44 -1.1 30
02:00 1004 29.65 833 24.6 10.5 50.8 44 -1.3 29.7
02:05 1003 29.62 833 24.6 10.7 51.2 44 -1.2 29.9
02:10 1003 29.62 833 24.6 10.4 50.7 45 -1 30.2
02:15 1003 29.62 833 24.6 10.3 50.6 42 -1.9 28.6
02:20 1003 29.62 832 24.57 10.7 51.2 43 -1.4 29.5
02:25 1003 29.62 832 24.57 10.3 50.6 45 -0.9 30.3
02:30 1003 29.62 832 24.57 10.2 50.3 45 -1.3 29.6
02:35 1003 29.62 832 24.57 10.3 50.6 43 -1.6 29.2
02:40 1003 29.62 832 24.57 10.4 50.7 45 -1 30.2
02:45 1003 29.62 832 24.57 10.2 50.3 46 -0.8 30.6
02:50 1003 29.62 832 24.57 10.2 50.4 44 -1.3 29.6
02:55 1003 29.62 832 24.57 10.3 50.5 45 -0.9 30.3
03:00 1002 29.59 832 24.57 10.3 50.5 45 -1.1 30
03:05 1002 29.59 832 24.57 10.4 50.7 45 -0.9 30.4
03:10 1002 29.59 831 24.54 10 50.1 47 -0.8 30.5
03:15 1002 29.59 831 24.54 9.9 49.9 47 -0.9 30.3
03:20 1002 29.59 831 24.54 9.9 49.9 47 -0.9 30.3
03:25 1002 29.59 831 24.54 10 50.1 46 -1.2 29.9
03:30 1002 29.59 831 24.54 10 49.9 48 -0.6 30.9
03:35 1002 29.59 831 24.54 10 49.9 47 -0.8 30.6
03:40 1002 29.59 831 24.54 9.9 49.8 46 -1.1 30.1
03:45 1002 29.59 831 24.54 9.8 49.6 47 -1 30.2
03:50 1002 29.59 831 24.54 10 49.9 47 -0.9 30.4
03:55 1002 29.59 831 24.54 9.8 49.7 46 -1.2 29.9
04:00 1002 29.59 831 24.54 9.7 49.5 48 -0.7 30.8
04:05 1001 29.56 831 24.54 9.6 49.4 45 -1.5 29.2
04:10 1001 29.56 831 24.54 9.9 49.7 46 -1.1 30.1
04:15 1001 29.56 830 24.51 9.5 49.1 47 -1.2 29.8
04:20 1001 29.56 830 24.51 9.7 49.4 45 -1.6 29.1
04:25 1001 29.56 830 24.51 9.8 49.6 46 -1.3 29.6
04:30 1001 29.56 830 24.51 9.6 49.3 45 -1.6 29.1
04:35 1001 29.56 830 24.51 9.8 49.6 45 -1.6 29.1
04:40 1001 29.56 830 24.51 9.6 49.2 46 -1.5 29.3
04:45 1000 29.53 830 24.51 9.4 48.9 45 -2 28.4
04:50 1000 29.53 829 24.48 9.6 49.3 46 -1.5 29.3
04:55 1000 29.53 829 24.48 9.4 49 43 -2.4 27.6
05:00 1000 29.53 829 24.48 9.7 49.5 45 -1.6 29.1
05:05 1000 29.53 829 24.48 9.5 49.1 45 -1.9 28.6
05:10 1000 29.53 829 24.48 9.4 48.9 43 -2.4 27.7
05:15 1000 29.53 829 24.48 9.4 48.9 45 -1.8 28.7
05:20 1000 29.53 829 24.48 9.4 48.8 45 -2 28.3
05:25 1000 29.53 829 24.48 9.4 48.9 44 -2.2 28
05:30 1000 29.53 829 24.48 9.3 48.7 44 -2.2 28
05:35 999 29.5 829 24.48 9.1 48.5 45 -2 28.4
05:40 999 29.5 829 24.48 9 48.3 46 -2.1 28.3
05:45 999 29.5 829 24.48 9 48.2 45 -2.3 27.9
05:50 999 29.5 829 24.48 9 48.2 43 -2.8 27
05:55 999 29.5 828 24.45 9.2 48.5 44 -2.5 27.6
06:00 999 29.5 828 24.45 9.1 48.3 45 -2.2 28.1
06:05 999 29.5 828 24.45 9 48.3 45 -2.3 27.9
06:10 999 29.5 828 24.45 8.9 48.1 45 -2.3 27.8
06:15 999 29.5 828 24.45 9.3 48.7 44 -2.3 27.9
06:20 999 29.5 828 24.45 8.7 47.7 44 -2.7 27.1
06:25 999 29.5 828 24.45 9.2 48.6 40 -3.7 25.3
06:30 998 29.47 828 24.45 9.7 49.4 40 -3.3 26
06:35 998 29.47 828 24.45 9 48.1 44 -2.5 27.6
06:40 998 29.47 828 24.45 8.8 47.8 45 -2.6 27.3
06:45 999 29.5 828 24.45 8.9 48 42 -3.2 26.2
06:50 999 29.5 828 24.45 9 48.3 41 -3.5 25.7
06:55 998 29.47 828 24.45 9.1 48.3 42 -3 26.6
07:00 998 29.47 827 24.42 8.7 47.7 43 -3.2 26.3
07:05 998 29.47 828 24.45 9.2 48.5 39 -4 24.8
07:10 998 29.47 828 24.45 9.5 49 38 -4.1 24.6
07:15 998 29.47 828 24.45 9.6 49.2 38 -3.9 25.1
07:20 998 29.47 828 24.45 9.6 49.3 38 -4 24.7
07:25 998 29.47 828 24.45 9.4 49 39 -3.7 25.4
07:30 998 29.47 827 24.42 9.3 48.7 40 -3.7 25.3
07:35 998 29.47 827 24.42 9 48.1 43 -3.1 26.5
07:40 998 29.47 827 24.42 8.4 47.1 45 -2.9 26.7
07:45 998 29.47 827 24.42 8.3 47 44 -3.2 26.2
07:50 998 29.47 827 24.42 8.6 47.5 40 -4.2 24.5
07:55 998 29.47 828 24.45 9 48.2 40 -3.9 25
08:00 998 29.47 828 24.45 9 48.2 40 -4 24.9
08:05 999 29.5 828 24.45 8.9 48.1 40 -3.8 25.1
08:10 999 29.5 829 24.48 8.9 48 46 -2 28.4
08:15 1000 29.53 829 24.48 6.5 43.7 65 0.4 32.6
08:20 1001 29.56 830 24.51 4.3 39.7 77 0.6 33.1
08:25 1001 29.56 830 24.51 2.8 37.1 85 0.6 33
08:30 1002 29.59 831 24.54 1.6 34.8 91 0.2 32.4
08:35 1002 29.59 831 24.54 0.7 33.2 95 -0.1 31.9
08:40 1002 29.59 831 24.54 0.3 32.5 97 -0.2 31.6
08:45 1002 29.59 832 24.57 0.1 32.2 98 -0.2 31.6
08:50 1002 29.59 831 24.54 -0 32 98 -0.3 31.5
08:55 1002 29.59 832 24.57 -0.1 31.8 98 -0.3 31.4
09:00 1003 29.62 832 24.57 -0.1 31.8 99 -0.3 31.5
09:05 1003 29.62 832 24.57 -0.1 31.8 99 -0.3 31.5
09:10 1003 29.62 832 24.57 -0.2 31.7 99 -0.3 31.4
09:15 1003 29.62 833 24.6 -0.1 31.7 99 -0.3 31.5
09:20 1004 29.65 833 24.6 -0.1 31.8 99 -0.2 31.6
09:25 1004 29.65 833 24.6 -0.1 31.8 99 -0.2 31.6
09:30 1004 29.65 834 24.63 -0.1 31.8 99 -0.2 31.6
09:35 1004 29.65 834 24.63 -0.1 31.9 99 -0.2 31.7
09:40 1005 29.68 834 24.63 -0.1 31.9 99 -0.2 31.7
09:45 1005 29.68 834 24.63 -0.1 31.9 99 -0.1 31.8
09:50 1004 29.65 834 24.63 -0.1 31.9 99 -0.2 31.7
09:55 1005 29.68 834 24.63 -0.1 31.8 100 -0.2 31.7
10:00 1005 29.68 834 24.63 -0.1 31.8 99 -0.2 31.7
10:05 1005 29.68 834 24.63 -0 31.9 99 -0.1 31.8
10:10 1005 29.68 834 24.63 0 32 100 -0.1 31.9
10:15 1005 29.68 834 24.63 0 32.1 100 -0 31.9
10:20 1005 29.68 834 24.63 0 32 100 -0 31.9
10:25 1005 29.68 834 24.63 0 32.1 99 -0 31.9
10:30 1005 29.68 834 24.63 -0 32 100 -0.1 31.9
10:35 1005 29.68 834 24.63 0 32.1 100 -0 31.9
10:40 1005 29.68 834 24.63 0 32.1 100 -0 32
10:45 1005 29.68 834 24.63 0.1 32.1 100 0 32
10:50 1005 29.68 834 24.63 0.1 32.1 99 -0 31.9
10:55 1005 29.68 834 24.63 0 32 99 -0.1 31.8
11:00 1005 29.68 834 24.63 -0 31.9 99 -0.1 31.7
11:05 1005 29.68 834 24.63 0 32 99 -0.1 31.8
11:10 1005 29.68 834 24.63 -0.1 31.9 99 -0.2 31.6
11:15 1005 29.68 834 24.63 -0 31.9 99 -0.2 31.6
11:20 1005 29.68 834 24.63 -0.2 31.7 98 -0.4 31.3
11:25 1005 29.68 834 24.63 -0.2 31.6 98 -0.5 31.2
11:30 1005 29.68 834 24.63 -0.1 31.8 98 -0.4 31.4
11:35 1004 29.65 834 24.63 0.2 32.3 98 -0.1 31.7
11:40 1004 29.65 833 24.6 0.3 32.6 97 -0.1 31.8
11:45 1004 29.65 833 24.6 0.7 33.3 97 0.3 32.6
11:50 1004 29.65 833 24.6 1.1 34.1 95 0.5 32.9
11:55 1004 29.65 833 24.6 1.2 34.2 92 0.1 32.1
12:00 1004 29.65 833 24.6 0.9 33.7 93 -0.1 31.8
12:05 1004 29.65 833 24.6 1.2 34.2 90 -0.2 31.6
12:10 1004 29.65 833 24.6 1.1 34.1 90 -0.4 31.3
12:15 1004 29.65 833 24.6 1.6 34.9 85 -0.6 30.8
12:20 1004 29.65 833 24.6 1.2 34.2 83 -1.3 29.6
12:25 1004 29.65 833 24.6 0.9 33.6 84 -1.5 29.3
12:30 1004 29.65 833 24.6 1 33.7 79 -2.2 28
12:35 1004 29.65 833 24.6 1.2 34.1 76 -2.5 27.5
12:40 1004 29.65 833 24.6 1.4 34.5 74 -2.7 27.1
12:45 1004 29.65 833 24.6 1.6 34.9 70 -3.2 26.2
12:50 1004 29.65 833 24.6 2 35.6 68 -3.4 26
12:55 1004 29.65 833 24.6 2.1 35.8 67 -3.4 25.8
13:00 1003 29.62 832 24.57 2.2 35.9 66 -3.5 25.7
13:05 1003 29.62 832 24.57 2.4 36.3 64 -3.6 25.4
13:10 1003 29.62 832 24.57 2.2 36 63 -4.1 24.7
13:15 1003 29.62 833 24.6 1.9 35.5 64 -4.1 24.6
13:20 1003 29.62 833 24.6 1.8 35.3 64 -4.3 24.3
13:25 1004 29.65 833 24.6 1.4 34.5 66 -4.3 24.3
13:30 1003 29.62 833 24.6 1.2 34.1 65 -4.6 23.7
13:35 1004 29.65 833 24.6 1 33.8 67 -4.5 23.9
13:40 1004 29.65 833 24.6 1 33.8 66 -4.6 23.7
13:45 1004 29.65 833 24.6 1 33.8 64 -5.2 22.7
13:50 1004 29.65 833 24.6 0.9 33.7 61 -5.8 21.5
13:55 1004 29.65 833 24.6 0.8 33.4 59 -6.4 20.5
14:00 1004 29.65 833 24.6 0.5 32.9 57 -6.9 19.5
14:05 1004 29.65 833 24.6 0.3 32.6 58 -6.9 19.5
14:10 1004 29.65 833 24.6 0.2 32.4 58 -7.2 19.1
14:15 1004 29.65 833 24.6 0.2 32.4 59 -6.9 19.6
14:20 1004 29.65 833 24.6 0.2 32.4 57 -7.2 19
14:25 1004 29.65 833 24.6 0.2 32.4 56 -7.6 18.3
14:30 1004 29.65 833 24.6 0.2 32.4 56 -7.6 18.4
14:35 1004 29.65 833 24.6 0.1 32.2 56 -7.6 18.3
14:40 1004 29.65 833 24.6 0.1 32.1 55 -7.9 17.8
14:45 1004 29.65 833 24.6 0.2 32.3 55 -7.9 17.8
14:50 1004 29.65 833 24.6 0.2 32.4 53 -8.2 17.2
14:55 1004 29.65 833 24.6 0.2 32.4 52 -8.5 16.6
15:00 1004 29.65 833 24.6 0.1 32.2 52 -8.7 16.4
15:05 1004 29.65 833 24.6 0.1 32.1 50 -9.1 15.6
15:10 1004 29.65 833 24.6 0 32 49 -9.4 15.1
15:15 1004 29.65 833 24.6 0.1 32.1 50 -9.1 15.6
15:20 1004 29.65 833 24.6 0 32 51 -9.1 15.7
15:25 1004 29.65 833 24.6 0 32 50 -9.1 15.6
15:30 1004 29.65 833 24.6 -0 32 50 -9.2 15.4
15:35 1004 29.65 833 24.6 -0.1 31.9 51 -9.1 15.7
15:40 1004 29.65 833 24.6 -0.1 31.8 49 -9.6 14.7
15:45 1004 29.65 833 24.6 -0.2 31.6 49 -9.8 14.4
15:50 1004 29.65 833 24.6 -0.2 31.6 47 -10.3 13.5
15:55 1004 29.65 833 24.6 -0.1 31.7 46 -10.5 13
16:00 1004 29.65 834 24.63 -0.1 31.8 45 -10.7 12.7
16:05 1004 29.65 834 24.63 0 32 42 -11.4 11.5
16:10 1005 29.68 834 24.63 0 32.1 43 -11.2 11.9
16:15 1005 29.68 834 24.63 0.1 32.1 42 -11.3 11.6
16:20 1005 29.68 834 24.63 0.1 32.2 44 -10.9 12.4
16:25 1005 29.68 834 24.63 0 32 46 -10.2 13.7
16:30 1005 29.68 834 24.63 -0.2 31.7 48 -9.8 14.3
16:35 1005 29.68 834 24.63 -0.3 31.5 48 -10.1 13.8
16:40 1005 29.68 834 24.63 -0.3 31.4 49 -9.9 14.2
16:45 1005 29.68 834 24.63 -0.4 31.2 49 -9.9 14.3
16:50 1005 29.68 834 24.63 -0.6 31 49 -9.9 14.2
16:55 1005 29.68 834 24.63 -0.6 30.9 51 -9.6 14.6
17:00 1005 29.68 834 24.63 -0.7 30.7 52 -9.5 14.9
17:05 1005 29.68 834 24.63 -0.8 30.6 51 -9.8 14.3
17:10 1005 29.68 834 24.63 -0.8 30.5 50 -10 14
17:15 1005 29.68 834 24.63 -0.9 30.3 50 -10.1 13.9
17:20 1005 29.68 834 24.63 -1.1 30.1 51 -9.9 14.2
17:25 1005 29.68 834 24.63 -1.2 29.9 51 -10.1 13.9
17:30 1005 29.68 834 24.63 -1.2 29.8 52 -9.9 14.3
17:35 1005 29.68 834 24.63 -1.2 29.8 52 -9.8 14.3
17:40 1005 29.68 834 24.63 -1.2 29.9 55 -9.2 15.5
17:45 1005 29.68 834 24.63 -1.3 29.6 54 -9.4 15.1
17:50 1005 29.68 835 24.66 -1.4 29.6 54 -9.6 14.7
17:55 1005 29.68 835 24.66 -1.4 29.6 54 -9.6 14.7
18:00 1005 29.68 835 24.66 -1.4 29.5 55 -9.3 15.2
18:05 1005 29.68 835 24.66 -1.6 29.2 57 -8.9 15.9
18:10 1005 29.68 835 24.66 -1.8 28.8 62 -8.1 17.4
18:15 1005 29.68 835 24.66 -1.9 28.5 63 -8 17.6
18:20 1005 29.68 835 24.66 -2 28.4 64 -7.9 17.8
18:25 1006 29.71 835 24.66 -2.1 28.3 64 -8 17.6
18:30 1006 29.71 835 24.66 -2 28.4 62 -8.2 17.2
18:35 1006 29.71 835 24.66 -1.9 28.6 61 -8.3 17
18:40 1006 29.71 835 24.66 -1.7 28.9 61 -8.2 17.2
18:45 1006 29.71 835 24.66 -1.7 29 60 -8.4 16.9
18:50 1006 29.71 835 24.66 -1.7 28.9 57 -9.2 15.4
18:55 1006 29.71 835 24.66 -1.7 29 53 -10.2 13.7
19:00 1006 29.71 835 24.66 -1.7 28.9 48 -11.2 11.8
19:05 1006 29.71 835 24.66 -1.7 28.9 48 -11.3 11.7
19:10 1006 29.71 835 24.66 -1.9 28.7 47 -11.8 10.8
19:15 1006 29.71 835 24.66 -1.9 28.6 46 -12.1 10.2
19:20 1006 29.71 835 24.66 -2 28.5 45 -12.4 9.6
19:25 1006 29.71 835 24.66 -2 28.3 45 -12.5 9.5
19:30 1006 29.71 835 24.66 -2.2 28.1 45 -12.6 9.4
19:35 1006 29.71 835 24.66 -2.2 28.1 44 -12.8 9
19:40 1006 29.71 835 24.66 -2.3 27.9 45 -12.5 9.4
19:45 1006 29.71 835 24.66 -2.4 27.6 46 -12.7 9.2
19:50 1006 29.71 835 24.66 -2.5 27.5 47 -12.4 9.7
19:55 1006 29.71 835 24.66 -2.6 27.3 49 -11.8 10.8
20:00 1006 29.71 835 24.66 -2.8 27 52 -11.3 11.7
20:05 1006 29.71 835 24.66 -2.8 26.9 53 -11.2 11.8
20:10 1006 29.71 835 24.66 -2.8 26.9 54 -10.9 12.3
20:15 1006 29.71 835 24.66 -2.9 26.7 55 -10.7 12.7
20:20 1006 29.71 835 24.66 -3 26.6 56 -10.6 12.9
20:25 1006 29.71 835 24.66 -3.1 26.4 56 -10.7 12.7
20:30 1006 29.71 836 24.69 -3.2 26.3 55 -11 12.2
20:35 1006 29.71 836 24.69 -3.3 26.1 55 -11.2 11.8
20:40 1006 29.71 836 24.69 -3.4 25.9 54 -11.5 11.3
20:45 1007 29.74 836 24.69 -3.5 25.7 54 -11.5 11.3
20:50 1007 29.74 836 24.69 -3.7 25.3 54 -11.8 10.8
20:55 1007 29.74 836 24.69 -3.8 25.1 54 -11.9 10.6
21:00 1007 29.74 836 24.69 -3.9 25 53 -12.1 10.2
21:05 1007 29.74 836 24.69 -3.8 25.1 52 -12.2 10
21:10 1007 29.74 836 24.69 -3.9 25 52 -12.4 9.6
21:15 1007 29.74 836 24.69 -3.9 25.1 50 -12.8 9
21:20 1007 29.74 836 24.69 -3.9 25.1 50 -12.8 8.9
21:25 1007 29.74 836 24.69 -3.8 25.2 50 -12.9 8.8
21:30 1007 29.74 836 24.69 -3.7 25.3 49 -12.8 8.9
21:35 1007 29.74 836 24.69 -3.7 25.3 49 -12.9 8.7
21:40 1007 29.74 836 24.69 -3.8 25.2 49 -13 8.6
21:45 1007 29.74 836 24.69 -3.9 25 48 -13.5 7.8
21:50 1007 29.74 836 24.69 -3.9 25.1 48 -13.3 8
21:55 1007 29.74 836 24.69 -4 24.9 47 -13.6 7.5
22:00 1007 29.74 836 24.69 -4 24.9 47 -13.7 7.3
22:05 1007 29.74 836 24.69 -4.1 24.6 48 -13.6 7.5
22:10 1007 29.74 836 24.69 -4.2 24.5 48 -13.7 7.3
22:15 1007 29.74 836 24.69 -4.2 24.4 47 -13.8 7.1
22:20 1007 29.74 836 24.69 -4.3 24.2 48 -13.9 7
22:25 1007 29.74 836 24.69 -4.4 24.1 48 -13.7 7.3
22:30 1007 29.74 836 24.69 -4.4 24 49 -13.6 7.5
22:35 1007 29.74 836 24.69 -4.5 23.9 50 -13.5 7.8
22:40 1007 29.74 836 24.69 -4.6 23.7 52 -13.1 8.4
22:45 1007 29.74 836 24.69 -4.7 23.6 52 -13.1 8.3
22:50 1007 29.74 836 24.69 -4.6 23.7 51 -13.2 8.3
22:55 1007 29.74 836 24.69 -4.5 23.9 50 -13.4 8
23:00 1007 29.74 836 24.69 -4.6 23.8 51 -13.3 8
23:05 1007 29.74 836 24.69 -4.6 23.8 50 -13.4 7.9
23:10 1007 29.74 836 24.69 -4.6 23.7 51 -13.2 8.2
23:15 1007 29.74 836 24.69 -4.5 23.9 50 -13.5 7.7
23:20 1007 29.74 837 24.72 -4.5 23.9 50 -13.3 8
23:25 1008 29.77 837 24.72 -4.7 23.6 50 -13.5 7.7
23:30 1008 29.77 837 24.72 -4.7 23.6 49 -13.8 7.2
23:35 1008 29.77 837 24.72 -4.7 23.6 49 -13.7 7.3
23:40 1008 29.77 837 24.72 -4.7 23.5 48 -14 6.8
23:45 1008 29.77 837 24.72 -4.7 23.5 48 -14.2 6.4
23:50 1008 29.77 837 24.72 -4.8 23.3 49 -14 6.8
23:55 1008 29.77 837 24.72 -5 23 50 -14 6.8
24:00 1008 29.77 837 24.72 -5.1 22.8 50 -14 6.7